This is the latest recevied weather packets stored in our database for station/object IU2RPR-3. If no packets are shown the sender has not sent any weather packets the latest 10 day(s).
| Time | Temp. | Humidity | Pressure | Rain* | Wind** | Luminosity | Snow |
|---|---|---|---|---|---|---|---|
| 1787727520 | 22.22° C | 73% | 1016.4 hPa | - | - | - | - |
| 1787726315 | 21.67° C | 76% | 1016.3 hPa | - | - | - | - |
| 1787725114 | 21.11° C | 79% | 1016.2 hPa | - | - | - | - |
| 1787723911 | 20.56° C | 82% | 1016 hPa | - | - | - | - |
| 1787722713 | 20° C | 85% | 1016 hPa | - | - | - | - |
| 1787721501 | 19.44° C | 86% | 1016.1 hPa | - | - | - | - |
| 1787720299 | 18.89° C | 88% | 1015.9 hPa | - | - | - | - |
| 1787719092 | 18.89° C | 89% | 1015.7 hPa | - | - | - | - |
| 1787717895 | 18.89° C | 90% | 1015.6 hPa | - | - | - | - |
| 1787716684 | 18.89° C | 91% | 1015.5 hPa | - | - | - | - |
| 1787715481 | 18.89° C | 89% | 1015.4 hPa | - | - | - | - |
| 1787714278 | 18.89° C | 91% | 1015.2 hPa | - | - | - | - |
| 1787713065 | 19.44° C | 88% | 1015.2 hPa | - | - | - | - |
| 1787711862 | 19.44° C | 89% | 1015.3 hPa | - | - | - | - |
| 1787710661 | 19.44° C | 88% | 1015.3 hPa | - | - | - | - |
| 1787709455 | 19.44° C | 89% | 1015.4 hPa | - | - | - | - |
| 1787708253 | 19.44° C | 87% | 1015.2 hPa | - | - | - | - |
| 1787707053 | 19.44° C | 89% | 1015.1 hPa | - | - | - | - |
| 1787705846 | 20° C | 86% | 1015 hPa | - | - | - | - |
| 1787704638 | 20° C | 85% | 1014.8 hPa | - | - | - | - |
* Rain since midnight (hover to see other rain measurements)
** Current wind speed in m/s (hover to see current wind gust speed)